sensor_id;sensor_type;location;lat;lon;timestamp;pressure;altitude;pressure_sealevel;temperature;humidity
51715;BME280;39115;59.332;18.034;2022-10-15T00:00:44;100459.41;;;11.59;63.54
51715;BME280;39115;59.332;18.034;2022-10-15T00:03:09;100449.75;;;11.58;63.16
51715;BME280;39115;59.332;18.034;2022-10-15T00:05:38;100457.03;;;11.56;63.56
51715;BME280;39115;59.332;18.034;2022-10-15T00:08:03;100461.53;;;11.55;63.40
51715;BME280;39115;59.332;18.034;2022-10-15T00:10:29;100461.53;;;11.55;63.17
51715;BME280;39115;59.332;18.034;2022-10-15T00:12:54;100460.69;;;11.55;63.77
51715;BME280;39115;59.332;18.034;2022-10-15T00:15:20;100459.88;;;11.54;63.58
51715;BME280;39115;59.332;18.034;2022-10-15T00:17:45;100455.50;;;11.53;63.33
51715;BME280;39115;59.332;18.034;2022-10-15T00:20:10;100449.34;;;11.53;63.47
51715;BME280;39115;59.332;18.034;2022-10-15T00:22:36;100447.53;;;11.53;63.36
51715;BME280;39115;59.332;18.034;2022-10-15T00:25:01;100442.50;;;11.50;63.55
51715;BME280;39115;59.332;18.034;2022-10-15T00:27:27;100442.50;;;11.50;63.39
51715;BME280;39115;59.332;18.034;2022-10-15T00:29:52;100437.31;;;11.49;63.78
51715;BME280;39115;59.332;18.034;2022-10-15T00:32:17;100441.81;;;11.48;63.31
51715;BME280;39115;59.332;18.034;2022-10-15T00:34:43;100447.28;;;11.47;63.73
51715;BME280;39115;59.332;18.034;2022-10-15T00:37:08;100439.28;;;11.47;63.56
51715;BME280;39115;59.332;18.034;2022-10-15T00:39:34;100441.09;;;11.46;63.44
51715;BME280;39115;59.332;18.034;2022-10-15T00:41:59;100433.25;;;11.45;63.62
51715;BME280;39115;59.332;18.034;2022-10-15T00:49:29;100433.41;;;11.43;63.49
51715;BME280;39115;59.332;18.034;2022-10-15T00:54:21;100430.88;;;11.42;63.51
51715;BME280;39115;59.332;18.034;2022-10-15T00:56:48;100438.88;;;11.42;63.91
51715;BME280;39115;59.332;18.034;2022-10-15T00:59:13;100434.53;;;11.41;63.42
51715;BME280;39115;59.332;18.034;2022-10-15T01:01:40;100433.72;;;11.40;63.68
51715;BME280;39115;59.332;18.034;2022-10-15T01:04:06;100428.53;;;11.38;63.88
51715;BME280;39115;59.332;18.034;2022-10-15T01:06:31;100428.53;;;11.38;63.69
51715;BME280;39115;59.332;18.034;2022-10-15T01:08:57;100428.66;;;11.37;63.42
51715;BME280;39115;59.332;18.034;2022-10-15T01:14:04;100427.13;;;11.34;63.63
51715;BME280;39115;59.332;18.034;2022-10-15T01:16:44;100427.28;;;11.33;63.97
51715;BME280;39115;59.332;18.034;2022-10-15T01:22:39;100419.59;;;11.30;64.13
51715;BME280;39115;59.332;18.034;2022-10-15T01:24:46;100417.06;;;11.28;64.19
51715;BME280;39115;59.332;18.034;2022-10-15T01:30:02;100419.03;;;11.26;63.82
51715;BME280;39115;59.332;18.034;2022-10-15T01:32:33;100421.84;;;11.25;63.77
51715;BME280;39115;59.332;18.034;2022-10-15T01:37:40;100408.16;;;11.19;64.25
51715;BME280;39115;59.332;18.034;2022-10-15T01:40:14;100407.44;;;11.17;63.96
51715;BME280;39115;59.332;18.034;2022-10-15T01:42:44;100400.44;;;11.16;64.25
51715;BME280;39115;59.332;18.034;2022-10-15T01:45:12;100396.25;;;11.14;64.08
51715;BME280;39115;59.332;18.034;2022-10-15T01:47:45;100397.22;;;11.13;64.05
51715;BME280;39115;59.332;18.034;2022-10-15T01:50:12;100390.38;;;11.10;64.23
51715;BME280;39115;59.332;18.034;2022-10-15T01:52:39;100392.34;;;11.08;63.92
51715;BME280;39115;59.332;18.034;2022-10-15T01:55:06;100388.16;;;11.05;64.42
51715;BME280;39115;59.332;18.034;2022-10-15T01:57:33;100381.97;;;11.05;64.16
51715;BME280;39115;59.332;18.034;2022-10-15T02:00:00;100379.31;;;11.05;64.32
51715;BME280;39115;59.332;18.034;2022-10-15T02:02:25;100377.66;;;11.04;64.40
51715;BME280;39115;59.332;18.034;2022-10-15T02:04:51;100375.13;;;11.02;63.73
51715;BME280;39115;59.332;18.034;2022-10-15T02:14:42;100372.06;;;10.97;64.32
51715;BME280;39115;59.332;18.034;2022-10-15T02:17:10;100369.56;;;10.96;64.41
51715;BME280;39115;59.332;18.034;2022-10-15T02:24:31;100377.13;;;10.90;64.19
51715;BME280;39115;59.332;18.034;2022-10-15T02:26:59;100368.47;;;10.88;63.78
51715;BME280;39115;59.332;18.034;2022-10-15T02:29:26;100366.09;;;10.85;64.33
51715;BME280;39115;59.332;18.034;2022-10-15T02:31:55;100358.38;;;10.82;64.32
51715;BME280;39115;59.332;18.034;2022-10-15T02:34:21;100364.00;;;10.79;64.19
51715;BME280;39115;59.332;18.034;2022-10-15T02:36:49;100356.31;;;10.76;64.34
51715;BME280;39115;59.332;18.034;2022-10-15T02:39:16;100354.63;;;10.75;64.23
51715;BME280;39115;59.332;18.034;2022-10-15T02:41:43;100353.09;;;10.72;64.01
51715;BME280;39115;59.332;18.034;2022-10-15T02:44:09;100356.72;;;10.71;63.96
51715;BME280;39115;59.332;18.034;2022-10-15T02:46:34;100359.56;;;10.70;64.20
51715;BME280;39115;59.332;18.034;2022-10-15T02:48:59;100362.38;;;10.68;64.18
51715;BME280;39115;59.332;18.034;2022-10-15T02:51:25;100358.84;;;10.68;64.05
51715;BME280;39115;59.332;18.034;2022-10-15T02:53:50;100353.53;;;10.68;64.11
51715;BME280;39115;59.332;18.034;2022-10-15T02:56:15;100350.03;;;10.67;63.99
51715;BME280;39115;59.332;18.034;2022-10-15T02:58:40;100344.56;;;10.69;63.68
51715;BME280;39115;59.332;18.034;2022-10-15T03:01:06;100332.94;;;10.70;64.36
51715;BME280;39115;59.332;18.034;2022-10-15T03:03:31;100328.44;;;10.70;64.23
51715;BME280;39115;59.332;18.034;2022-10-15T03:05:56;100322.13;;;10.71;63.75
51715;BME280;39115;59.332;18.034;2022-10-15T03:08:22;100327.44;;;10.71;64.17
51715;BME280;39115;59.332;18.034;2022-10-15T03:10:47;100320.31;;;10.72;63.98
51715;BME280;39115;59.332;18.034;2022-10-15T03:13:12;100322.97;;;10.72;63.90
51715;BME280;39115;59.332;18.034;2022-10-15T03:15:38;100327.31;;;10.73;63.85
51715;BME280;39115;59.332;18.034;2022-10-15T03:18:03;100328.16;;;10.73;63.74
51715;BME280;39115;59.332;18.034;2022-10-15T03:20:29;100321.00;;;10.74;64.13
51715;BME280;39115;59.332;18.034;2022-10-15T03:22:54;100317.50;;;10.73;64.10
51715;BME280;39115;59.332;18.034;2022-10-15T03:25:20;100318.47;;;10.72;63.94
51715;BME280;39115;59.332;18.034;2022-10-15T03:27:45;100321.16;;;10.72;64.00
51715;BME280;39115;59.332;18.034;2022-10-15T03:30:10;100321.16;;;10.72;64.43
51715;BME280;39115;59.332;18.034;2022-10-15T03:32:36;100324.50;;;10.74;64.01
51715;BME280;39115;59.332;18.034;2022-10-15T03:35:01;100321.84;;;10.74;63.86
51715;BME280;39115;59.332;18.034;2022-10-15T03:37:26;100325.22;;;10.77;64.45
51715;BME280;39115;59.332;18.034;2022-10-15T03:39:52;100309.22;;;10.77;64.09
51715;BME280;39115;59.332;18.034;2022-10-15T03:42:17;100316.91;;;10.80;64.34
51715;BME280;39115;59.332;18.034;2022-10-15T03:44:42;100319.56;;;10.80;64.49
51715;BME280;39115;59.332;18.034;2022-10-15T03:47:08;100316.91;;;10.80;64.28
51715;BME280;39115;59.332;18.034;2022-10-15T03:49:33;100314.09;;;10.81;64.61
51715;BME280;39115;59.332;18.034;2022-10-15T03:51:58;100317.59;;;10.82;64.66
51715;BME280;39115;59.332;18.034;2022-10-15T03:54:24;100306.09;;;10.81;64.51
51715;BME280;39115;59.332;18.034;2022-10-15T03:56:49;100308.66;;;10.83;64.29
51715;BME280;39115;59.332;18.034;2022-10-15T03:59:14;100295.34;;;10.83;64.75
51715;BME280;39115;59.332;18.034;2022-10-15T04:01:40;100296.84;;;10.85;64.65
51715;BME280;39115;59.332;18.034;2022-10-15T04:04:05;100289.69;;;10.86;64.44
51715;BME280;39115;59.332;18.034;2022-10-15T04:06:31;100284.09;;;10.89;64.24
51715;BME280;39115;59.332;18.034;2022-10-15T04:08:58;100275.13;;;10.90;64.24
51715;BME280;39115;59.332;18.034;2022-10-15T04:11:24;100281.13;;;10.92;64.54
51715;BME280;39115;59.332;18.034;2022-10-15T04:13:49;100281.69;;;10.96;64.81
51715;BME280;39115;59.332;18.034;2022-10-15T04:16:15;100278.53;;;11.00;64.45
51715;BME280;39115;59.332;18.034;2022-10-15T04:18:40;100280.91;;;11.03;64.38
51715;BME280;39115;59.332;18.034;2022-10-15T04:21:05;100269.97;;;11.06;64.33
51715;BME280;39115;59.332;18.034;2022-10-15T04:23:31;100266.16;;;11.09;64.55
51715;BME280;39115;59.332;18.034;2022-10-15T04:25:59;100273.84;;;11.12;64.73
51715;BME280;39115;59.332;18.034;2022-10-15T04:28:25;100279.72;;;11.16;64.68
51715;BME280;39115;59.332;18.034;2022-10-15T04:30:50;100283.94;;;11.18;64.15
51715;BME280;39115;59.332;18.034;2022-10-15T04:33:15;100265.94;;;11.20;64.45
51715;BME280;39115;59.332;18.034;2022-10-15T04:35:41;100267.50;;;11.23;64.39
51715;BME280;39115;59.332;18.034;2022-10-15T04:38:06;100269.13;;;11.24;64.37
51715;BME280;39115;59.332;18.034;2022-10-15T04:40:31;100261.03;;;11.26;64.68
51715;BME280;39115;59.332;18.034;2022-10-15T04:42:57;100262.53;;;11.28;64.32
51715;BME280;39115;59.332;18.034;2022-10-15T04:45:22;100253.69;;;11.28;64.66
51715;BME280;39115;59.332;18.034;2022-10-15T04:47:47;100261.56;;;11.29;64.63
51715;BME280;39115;59.332;18.034;2022-10-15T04:50:13;100265.75;;;11.32;64.41
51715;BME280;39115;59.332;18.034;2022-10-15T04:52:38;100258.56;;;11.32;64.38
51715;BME280;39115;59.332;18.034;2022-10-15T04:55:04;100252.94;;;11.35;64.73
51715;BME280;39115;59.332;18.034;2022-10-15T04:57:30;100250.13;;;11.37;64.52
51715;BME280;39115;59.332;18.034;2022-10-15T04:59:55;100248.16;;;11.39;64.62
51715;BME280;39115;59.332;18.034;2022-10-15T05:02:20;100248.84;;;11.41;64.63
51715;BME280;39115;59.332;18.034;2022-10-15T05:04:46;100238.84;;;11.43;64.20
51715;BME280;39115;59.332;18.034;2022-10-15T05:07:11;100238.72;;;11.45;64.17
51715;BME280;39115;59.332;18.034;2022-10-15T05:09:36;100240.22;;;11.47;64.78
51715;BME280;39115;59.332;18.034;2022-10-15T05:12:01;100231.25;;;11.48;64.42
51715;BME280;39115;59.332;18.034;2022-10-15T05:14:27;100229.28;;;11.50;64.44
51715;BME280;39115;59.332;18.034;2022-10-15T05:16:52;100235.28;;;11.52;64.82
51715;BME280;39115;59.332;18.034;2022-10-15T05:19:17;100227.16;;;11.54;64.66
51715;BME280;39115;59.332;18.034;2022-10-15T05:21:43;100218.00;;;11.57;64.26
51715;BME280;39115;59.332;18.034;2022-10-15T05:24:09;100215.00;;;11.60;64.39
51715;BME280;39115;59.332;18.034;2022-10-15T05:26:34;100213.88;;;11.62;64.49
51715;BME280;39115;59.332;18.034;2022-10-15T05:28:59;100215.41;;;11.65;64.43
51715;BME280;39115;59.332;18.034;2022-10-15T05:31:28;100220.56;;;11.66;64.38
51715;BME280;39115;59.332;18.034;2022-10-15T05:33:54;100228.28;;;11.69;64.47
51715;BME280;39115;59.332;18.034;2022-10-15T05:36:21;100219.13;;;11.72;64.37
51715;BME280;39115;59.332;18.034;2022-10-15T05:38:47;100221.63;;;11.74;64.18
51715;BME280;39115;59.332;18.034;2022-10-15T05:41:13;100213.47;;;11.75;64.21
51715;BME280;39115;59.332;18.034;2022-10-15T05:43:39;100214.16;;;11.77;64.53
51715;BME280;39115;59.332;18.034;2022-10-15T05:46:04;100213.00;;;11.80;64.59
51715;BME280;39115;59.332;18.034;2022-10-15T05:48:30;100216.34;;;11.82;64.26
51715;BME280;39115;59.332;18.034;2022-10-15T05:50:59;100217.03;;;11.84;64.39
51715;BME280;39115;59.332;18.034;2022-10-15T05:53:24;100213.38;;;11.85;64.37
51715;BME280;39115;59.332;18.034;2022-10-15T05:55:51;100206.03;;;11.87;64.50
51715;BME280;39115;59.332;18.034;2022-10-15T05:58:16;100210.38;;;11.88;64.52
51715;BME280;39115;59.332;18.034;2022-10-15T06:00:42;100211.06;;;11.90;64.50
51715;BME280;39115;59.332;18.034;2022-10-15T06:03:10;100208.09;;;11.93;64.68
51715;BME280;39115;59.332;18.034;2022-10-15T06:05:35;100215.09;;;11.94;64.46
51715;BME280;39115;59.332;18.034;2022-10-15T06:08:01;100208.75;;;11.95;64.70
51715;BME280;39115;59.332;18.034;2022-10-15T06:10:26;100200.66;;;11.97;64.59
51715;BME280;39115;59.332;18.034;2022-10-15T06:12:52;100198.66;;;11.99;64.64
51715;BME280;39115;59.332;18.034;2022-10-15T06:15:17;100200.03;;;12.03;64.74
51715;BME280;39115;59.332;18.034;2022-10-15T06:17:43;100199.03;;;12.04;64.77
51715;BME280;39115;59.332;18.034;2022-10-15T06:20:09;100192.38;;;12.08;64.44
51715;BME280;39115;59.332;18.034;2022-10-15T06:22:34;100192.06;;;12.11;64.46
51715;BME280;39115;59.332;18.034;2022-10-15T06:25:00;100193.59;;;12.14;64.52
51715;BME280;39115;59.332;18.034;2022-10-15T06:27:25;100196.94;;;12.16;64.65
51715;BME280;39115;59.332;18.034;2022-10-15T06:29:51;100196.59;;;12.19;64.57
51715;BME280;39115;59.332;18.034;2022-10-15T06:32:16;100190.97;;;12.22;64.71
51715;BME280;39115;59.332;18.034;2022-10-15T06:34:42;100197.81;;;12.25;64.56
51715;BME280;39115;59.332;18.034;2022-10-15T06:37:08;100193.97;;;12.27;64.39
51715;BME280;39115;59.332;18.034;2022-10-15T06:39:33;100192.81;;;12.30;64.41
51715;BME280;39115;59.332;18.034;2022-10-15T06:41:58;100191.66;;;12.32;64.37
51715;BME280;39115;59.332;18.034;2022-10-15T06:44:24;100203.00;;;12.34;64.59
51715;BME280;39115;59.332;18.034;2022-10-15T06:46:49;100203.69;;;12.37;64.67
51715;BME280;39115;59.332;18.034;2022-10-15T06:49:14;100190.03;;;12.40;64.80
51715;BME280;39115;59.332;18.034;2022-10-15T06:51:39;100192.38;;;12.43;64.66
51715;BME280;39115;59.332;18.034;2022-10-15T06:54:05;100194.56;;;12.47;64.53
51715;BME280;39115;59.332;18.034;2022-10-15T06:56:30;100191.41;;;12.52;64.64
51715;BME280;39115;59.332;18.034;2022-10-15T06:58:55;100194.59;;;12.56;64.77
51715;BME280;39115;59.332;18.034;2022-10-15T07:01:20;100194.94;;;12.61;64.51
51715;BME280;39115;59.332;18.034;2022-10-15T07:03:49;100192.78;;;12.64;64.64
51715;BME280;39115;59.332;18.034;2022-10-15T07:06:15;100194.16;;;12.69;64.63
51715;BME280;39115;59.332;18.034;2022-10-15T07:08:40;100183.81;;;12.74;64.57
51715;BME280;39115;59.332;18.034;2022-10-15T07:11:06;100185.69;;;12.81;64.58
51715;BME280;39115;59.332;18.034;2022-10-15T07:13:32;100185.84;;;12.88;64.43
51715;BME280;39115;59.332;18.034;2022-10-15T07:16:01;100187.03;;;12.94;64.57
51715;BME280;39115;59.332;18.034;2022-10-15T07:18:27;100183.69;;;13.00;64.63
51715;BME280;39115;59.332;18.034;2022-10-15T07:20:52;100192.59;;;13.09;64.40
51715;BME280;39115;59.332;18.034;2022-10-15T07:23:17;100189.06;;;13.17;64.11
51715;BME280;39115;59.332;18.034;2022-10-15T07:25:42;100190.94;;;13.24;64.26
51715;BME280;39115;59.332;18.034;2022-10-15T07:28:08;100182.25;;;13.31;64.16
51715;BME280;39115;59.332;18.034;2022-10-15T07:30:33;100190.75;;;13.34;64.24
51715;BME280;39115;59.332;18.034;2022-10-15T07:32:59;100191.25;;;13.38;64.16
51715;BME280;39115;59.332;18.034;2022-10-15T07:35:24;100188.59;;;13.38;64.26
51715;BME280;39115;59.332;18.034;2022-10-15T07:37:50;100183.78;;;13.41;64.37
51715;BME280;39115;59.332;18.034;2022-10-15T07:40:16;100191.13;;;13.48;64.43
51715;BME280;39115;59.332;18.034;2022-10-15T07:42:41;100185.09;;;13.54;64.17
51715;BME280;39115;59.332;18.034;2022-10-15T07:45:07;100181.94;;;13.58;64.31
51715;BME280;39115;59.332;18.034;2022-10-15T07:47:32;100184.09;;;13.63;64.09
51715;BME280;39115;59.332;18.034;2022-10-15T07:49:58;100180.91;;;13.68;64.22
51715;BME280;39115;59.332;18.034;2022-10-15T07:52:23;100187.25;;;13.75;64.27
51715;BME280;39115;59.332;18.034;2022-10-15T07:54:48;100183.25;;;13.79;63.97
51715;BME280;39115;59.332;18.034;2022-10-15T07:57:14;100189.94;;;13.83;64.31
51715;BME280;39115;59.332;18.034;2022-10-15T07:59:39;100190.59;;;13.85;64.26
51715;BME280;39115;59.332;18.034;2022-10-15T08:02:04;100195.44;;;13.90;64.07
51715;BME280;39115;59.332;18.034;2022-10-15T08:04:30;100197.94;;;13.91;64.24
51715;BME280;39115;59.332;18.034;2022-10-15T08:06:55;100189.25;;;13.89;64.31
51715;BME280;39115;59.332;18.034;2022-10-15T08:09:20;100195.78;;;13.87;64.45
51715;BME280;39115;59.332;18.034;2022-10-15T08:11:46;100189.94;;;13.83;64.29
51715;BME280;39115;59.332;18.034;2022-10-15T08:14:11;100188.25;;;13.82;64.38
51715;BME280;39115;59.332;18.034;2022-10-15T08:16:37;100186.25;;;13.84;64.48
51715;BME280;39115;59.332;18.034;2022-10-15T08:19:02;100189.91;;;13.91;64.14
51715;BME280;39115;59.332;18.034;2022-10-15T08:21:28;100197.75;;;13.93;64.29
51715;BME280;39115;59.332;18.034;2022-10-15T08:23:53;100193.78;;;13.89;64.28
51715;BME280;39115;59.332;18.034;2022-10-15T08:26:19;100196.78;;;13.86;64.66
51715;BME280;39115;59.332;18.034;2022-10-15T08:28:44;100191.94;;;13.81;64.70
51715;BME280;39115;59.332;18.034;2022-10-15T08:31:09;100204.66;;;13.79;64.65
51715;BME280;39115;59.332;18.034;2022-10-15T08:33:35;100200.13;;;13.80;64.48
51715;BME280;39115;59.332;18.034;2022-10-15T08:36:04;100192.59;;;13.83;64.19
51715;BME280;39115;59.332;18.034;2022-10-15T08:38:30;100194.28;;;13.84;64.36
51715;BME280;39115;59.332;18.034;2022-10-15T08:40:56;100204.66;;;13.87;64.40
51715;BME280;39115;59.332;18.034;2022-10-15T08:43:24;100202.13;;;13.94;64.34
51715;BME280;39115;59.332;18.034;2022-10-15T08:45:53;100199.09;;;13.97;64.50
51715;BME280;39115;59.332;18.034;2022-10-15T08:48:21;100195.59;;;13.97;64.37
51715;BME280;39115;59.332;18.034;2022-10-15T08:50:51;100199.94;;;13.98;64.43
51715;BME280;39115;59.332;18.034;2022-10-15T08:53:19;100203.59;;;13.97;64.56
51715;BME280;39115;59.332;18.034;2022-10-15T08:55:47;100208.97;;;13.97;64.41
51715;BME280;39115;59.332;18.034;2022-10-15T08:58:21;100192.91;;;13.97;64.39
51715;BME280;39115;59.332;18.034;2022-10-15T09:00:50;100202.47;;;13.99;64.45
51715;BME280;39115;59.332;18.034;2022-10-15T09:06:33;100199.25;;;14.04;64.32
51715;BME280;39115;59.332;18.034;2022-10-15T09:13:54;100199.72;;;14.16;64.50
51715;BME280;39115;59.332;18.034;2022-10-15T09:16:26;100185.81;;;14.20;64.16
51715;BME280;39115;59.332;18.034;2022-10-15T09:18:53;100196.88;;;14.26;64.40
51715;BME280;39115;59.332;18.034;2022-10-15T09:21:19;100191.59;;;14.41;63.97
51715;BME280;39115;59.332;18.034;2022-10-15T09:23:46;100196.09;;;14.57;64.12
51715;BME280;39115;59.332;18.034;2022-10-15T09:28:55;100191.16;;;14.77;63.72
51715;BME280;39115;59.332;18.034;2022-10-15T09:31:24;100193.25;;;14.90;63.77
51715;BME280;39115;59.332;18.034;2022-10-15T09:33:56;100189.50;;;14.99;63.91
51715;BME280;39115;59.332;18.034;2022-10-15T09:43:59;100193.75;;;15.16;63.70
51715;BME280;39115;59.332;18.034;2022-10-15T09:46:26;100197.63;;;15.14;63.66
51715;BME280;39115;59.332;18.034;2022-10-15T09:49:02;100193.94;;;15.15;63.70
51715;BME280;39115;59.332;18.034;2022-10-15T09:51:34;100190.78;;;15.11;63.75
51715;BME280;39115;59.332;18.034;2022-10-15T09:56:27;100193.69;;;15.01;64.08
51715;BME280;39115;59.332;18.034;2022-10-15T09:58:56;100199.41;;;14.98;63.89
51715;BME280;39115;59.332;18.034;2022-10-15T10:03:51;100198.94;;;14.95;64.21
51715;BME280;39115;59.332;18.034;2022-10-15T10:06:17;100201.13;;;14.91;64.19
51715;BME280;39115;59.332;18.034;2022-10-15T10:08:50;100203.97;;;14.90;64.04
51715;BME280;39115;59.332;18.034;2022-10-15T10:11:16;100202.66;;;14.85;64.25
51715;BME280;39115;59.332;18.034;2022-10-15T10:13:48;100198.00;;;14.79;64.40
51715;BME280;39115;59.332;18.034;2022-10-15T10:16:16;100199.53;;;14.74;64.18
51715;BME280;39115;59.332;18.034;2022-10-15T10:18:42;100201.91;;;14.68;64.29
51715;BME280;39115;59.332;18.034;2022-10-15T10:23:46;100193.88;;;14.68;64.42
51715;BME280;39115;59.332;18.034;2022-10-15T10:26:12;100186.47;;;14.70;64.16
51715;BME280;39115;59.332;18.034;2022-10-15T10:28:49;100194.19;;;14.74;64.05
51715;BME280;39115;59.332;18.034;2022-10-15T10:31:16;100186.81;;;14.76;64.29
51715;BME280;39115;59.332;18.034;2022-10-15T10:33:43;100190.97;;;14.78;63.99
51715;BME280;39115;59.332;18.034;2022-10-15T10:36:20;100194.81;;;14.84;64.21
51715;BME280;39115;59.332;18.034;2022-10-15T10:41:21;100188.31;;;14.78;64.45
51715;BME280;39115;59.332;18.034;2022-10-15T10:43:53;100184.47;;;14.73;64.27
51715;BME280;39115;59.332;18.034;2022-10-15T10:46:19;100196.38;;;14.70;64.54
51715;BME280;39115;59.332;18.034;2022-10-15T10:48:49;100193.88;;;14.68;64.58
51715;BME280;39115;59.332;18.034;2022-10-15T10:53:45;100188.53;;;14.68;64.44
51715;BME280;39115;59.332;18.034;2022-10-15T10:56:12;100186.00;;;14.67;64.48
51715;BME280;39115;59.332;18.034;2022-10-15T10:58:39;100184.47;;;14.64;64.42
51715;BME280;39115;59.332;18.034;2022-10-15T11:01:05;100190.34;;;14.60;64.46
51715;BME280;39115;59.332;18.034;2022-10-15T11:06:08;100193.41;;;14.57;64.51
51715;BME280;39115;59.332;18.034;2022-10-15T11:08:44;100198.56;;;14.58;64.42
51715;BME280;39115;59.332;18.034;2022-10-15T11:19:43;100179.00;;;14.58;64.19
51715;BME280;39115;59.332;18.034;2022-10-15T11:38:42;100166.97;;;14.53;64.40
51715;BME280;39115;59.332;18.034;2022-10-15T11:41:23;100172.13;;;14.55;64.69
51715;BME280;39115;59.332;18.034;2022-10-15T11:43:54;100166.25;;;14.60;64.66
51715;BME280;39115;59.332;18.034;2022-10-15T11:53:56;100163.34;;;14.78;64.39
51715;BME280;39115;59.332;18.034;2022-10-15T11:56:35;100172.22;;;14.78;64.24
51715;BME280;39115;59.332;18.034;2022-10-15T12:04:02;100158.66;;;14.80;64.55
51715;BME280;39115;59.332;18.034;2022-10-15T12:06:35;100161.31;;;14.80;64.52
51715;BME280;39115;59.332;18.034;2022-10-15T12:09:04;100153.59;;;14.85;64.36
51715;BME280;39115;59.332;18.034;2022-10-15T12:11:41;100156.91;;;14.87;64.26
51715;BME280;39115;59.332;18.034;2022-10-15T12:16:45;100148.53;;;14.90;64.11
51715;BME280;39115;59.332;18.034;2022-10-15T12:19:37;100149.06;;;14.85;64.51
51715;BME280;39115;59.332;18.034;2022-10-15T12:22:02;100147.94;;;14.80;64.62
51715;BME280;39115;59.332;18.034;2022-10-15T12:29:46;100151.19;;;14.67;64.77
51715;BME280;39115;59.332;18.034;2022-10-15T12:32:22;100148.84;;;14.64;64.44
51715;BME280;39115;59.332;18.034;2022-10-15T12:34:53;100137.81;;;14.59;64.35
51715;BME280;39115;59.332;18.034;2022-10-15T12:37:18;100143.53;;;14.55;64.55
51715;BME280;39115;59.332;18.034;2022-10-15T12:39:46;100135.00;;;14.52;64.77
51715;BME280;39115;59.332;18.034;2022-10-15T12:42:31;100137.03;;;14.50;64.99
51715;BME280;39115;59.332;18.034;2022-10-15T12:44:57;100139.22;;;14.46;64.62
51715;BME280;39115;59.332;18.034;2022-10-15T12:50:15;100133.91;;;14.38;64.86
51715;BME280;39115;59.332;18.034;2022-10-15T13:00:28;100140.81;;;14.24;64.82
51715;BME280;39115;59.332;18.034;2022-10-15T13:02:53;100133.28;;;14.19;64.94
51715;BME280;39115;59.332;18.034;2022-10-15T13:05:27;100132.81;;;14.16;64.89
51715;BME280;39115;59.332;18.034;2022-10-15T13:07:53;100124.28;;;14.12;65.20
51715;BME280;39115;59.332;18.034;2022-10-15T13:10:26;100134.50;;;14.08;64.91
51715;BME280;39115;59.332;18.034;2022-10-15T13:12:53;100139.22;;;14.06;65.27
51715;BME280;39115;59.332;18.034;2022-10-15T13:15:20;100133.19;;;14.04;64.99
51715;BME280;39115;59.332;18.034;2022-10-15T13:17:47;100133.38;;;14.03;64.97
51715;BME280;39115;59.332;18.034;2022-10-15T13:20:32;100141.75;;;14.00;65.00
51715;BME280;39115;59.332;18.034;2022-10-15T13:25:33;100124.00;;;13.99;64.96
51715;BME280;39115;59.332;18.034;2022-10-15T13:27:58;100140.25;;;13.97;65.25
51715;BME280;39115;59.332;18.034;2022-10-15T13:30:23;100136.09;;;13.95;65.12
51715;BME280;39115;59.332;18.034;2022-10-15T13:32:50;100133.72;;;13.91;65.11
51715;BME280;39115;59.332;18.034;2022-10-15T13:37:47;100143.94;;;13.88;65.29
51715;BME280;39115;59.332;18.034;2022-10-15T13:40:23;100142.09;;;13.88;65.44
51715;BME280;39115;59.332;18.034;2022-10-15T13:43:12;100142.28;;;13.87;65.09
51715;BME280;39115;59.332;18.034;2022-10-15T13:45:44;100142.28;;;13.87;65.23
51715;BME280;39115;59.332;18.034;2022-10-15T13:48:10;100137.78;;;13.87;65.19
51715;BME280;39115;59.332;18.034;2022-10-15T13:50:36;100140.59;;;13.86;65.21
51715;BME280;39115;59.332;18.034;2022-10-15T13:53:10;100141.44;;;13.86;65.10
51715;BME280;39115;59.332;18.034;2022-10-15T13:55:36;100146.81;;;13.86;65.05
51715;BME280;39115;59.332;18.034;2022-10-15T13:58:05;100143.44;;;13.84;65.44
51715;BME280;39115;59.332;18.034;2022-10-15T14:00:39;100140.78;;;13.84;65.21
51715;BME280;39115;59.332;18.034;2022-10-15T14:03:24;100146.94;;;13.85;65.08
51715;BME280;39115;59.332;18.034;2022-10-15T14:05:51;100138.94;;;13.85;65.22
51715;BME280;39115;59.332;18.034;2022-10-15T14:10:45;100139.59;;;13.87;65.13
51715;BME280;39115;59.332;18.034;2022-10-15T14:13:11;100137.78;;;13.87;65.11
51715;BME280;39115;59.332;18.034;2022-10-15T14:15:47;100142.09;;;13.88;64.96
51715;BME280;39115;59.332;18.034;2022-10-15T14:18:14;100142.09;;;13.88;65.05
51715;BME280;39115;59.332;18.034;2022-10-15T14:20:43;100141.28;;;13.88;65.33
51715;BME280;39115;59.332;18.034;2022-10-15T14:23:42;100143.94;;;13.88;65.02
51715;BME280;39115;59.332;18.034;2022-10-15T14:26:01;100137.41;;;13.90;65.25
51715;BME280;39115;59.332;18.034;2022-10-15T14:28:28;100141.75;;;13.91;65.12
51715;BME280;39115;59.332;18.034;2022-10-15T14:30:54;100145.25;;;13.92;65.14
51715;BME280;39115;59.332;18.034;2022-10-15T14:33:30;100148.59;;;13.94;64.93
51715;BME280;39115;59.332;18.034;2022-10-15T14:36:03;100147.78;;;13.94;65.24
51715;BME280;39115;59.332;18.034;2022-10-15T14:38:29;100150.94;;;13.97;64.88
51715;BME280;39115;59.332;18.034;2022-10-15T14:40:55;100153.63;;;13.97;65.15
51715;BME280;39115;59.332;18.034;2022-10-15T14:43:21;100151.63;;;13.99;64.90
51715;BME280;39115;59.332;18.034;2022-10-15T14:45:54;100154.31;;;13.99;64.97
51715;BME280;39115;59.332;18.034;2022-10-15T14:50:46;100161.47;;;13.99;64.96